Terminal Aerodrome Forecast
Issued by NWS Melbourne, FL

Home | Current Version | Previous Version | Text Only | Print | Product List | Glossary On
Versions: 1 2 3 4 5 6 7 8 9 10 11 12 13
000
FTUS42 KMLB 272331
TAFVRB
TAF
KVRB 272331Z 2800/2824 32003KT P6SM FEW050 BKN200
     FM281100 22004KT P6SM SCT025 SCT060 BKN250
     FM281700 10009KT P6SM VCTS SCT035CB SCT250
      TEMPO 2818/2821 TS BKN035CB BKN070=

USA.gov is the U.S. government's official web portal to all federal, state and local government web resources and services.